sensor_id;sensor_type;location;lat;lon;timestamp;P1;durP1;ratioP1;P2;durP2;ratioP2
75990;SDS011;64673;52.276;10.560;2023-10-31T00:01:14;1.50;;;1.00;;
75990;SDS011;64673;52.276;10.560;2023-10-31T00:03:39;1.40;;;0.80;;
75990;SDS011;64673;52.276;10.560;2023-10-31T00:06:05;1.25;;;0.88;;
75990;SDS011;64673;52.276;10.560;2023-10-31T00:08:31;0.82;;;0.63;;
75990;SDS011;64673;52.276;10.560;2023-10-31T00:10:56;1.65;;;0.63;;
75990;SDS011;64673;52.276;10.560;2023-10-31T00:13:22;3.88;;;0.90;;
75990;SDS011;64673;52.276;10.560;2023-10-31T00:15:47;3.03;;;0.73;;
75990;SDS011;64673;52.276;10.560;2023-10-31T00:18:12;1.63;;;0.82;;
75990;SDS011;64673;52.276;10.560;2023-10-31T00:20:38;1.38;;;0.82;;
75990;SDS011;64673;52.276;10.560;2023-10-31T00:23:03;1.73;;;1.13;;
75990;SDS011;64673;52.276;10.560;2023-10-31T00:25:28;1.05;;;0.60;;
75990;SDS011;64673;52.276;10.560;2023-10-31T00:27:54;2.13;;;0.73;;
75990;SDS011;64673;52.276;10.560;2023-10-31T00:30:19;1.80;;;0.95;;
75990;SDS011;64673;52.276;10.560;2023-10-31T00:32:44;1.92;;;1.00;;
75990;SDS011;64673;52.276;10.560;2023-10-31T00:35:10;2.80;;;0.98;;
75990;SDS011;64673;52.276;10.560;2023-10-31T00:40:04;1.73;;;0.98;;
75990;SDS011;64673;52.276;10.560;2023-10-31T00:42:31;2.00;;;0.90;;
75990;SDS011;64673;52.276;10.560;2023-10-31T00:44:56;2.95;;;1.55;;
75990;SDS011;64673;52.276;10.560;2023-10-31T00:47:22;2.72;;;2.13;;
75990;SDS011;64673;52.276;10.560;2023-10-31T00:49:47;3.35;;;1.52;;
75990;SDS011;64673;52.276;10.560;2023-10-31T00:52:12;4.05;;;2.13;;
75990;SDS011;64673;52.276;10.560;2023-10-31T00:54:38;3.47;;;1.52;;
75990;SDS011;64673;52.276;10.560;2023-10-31T00:57:03;2.03;;;1.33;;
75990;SDS011;64673;52.276;10.560;2023-10-31T00:59:28;3.30;;;2.15;;
75990;SDS011;64673;52.276;10.560;2023-10-31T01:01:54;3.90;;;1.70;;
75990;SDS011;64673;52.276;10.560;2023-10-31T01:04:19;3.83;;;1.98;;
75990;SDS011;64673;52.276;10.560;2023-10-31T01:06:44;3.75;;;1.98;;
75990;SDS011;64673;52.276;10.560;2023-10-31T01:09:10;2.72;;;1.98;;
75990;SDS011;64673;52.276;10.560;2023-10-31T01:11:36;4.05;;;2.20;;
75990;SDS011;64673;52.276;10.560;2023-10-31T01:14:02;2.72;;;1.73;;
75990;SDS011;64673;52.276;10.560;2023-10-31T01:16:28;5.22;;;2.22;;
75990;SDS011;64673;52.276;10.560;2023-10-31T01:18:53;3.00;;;1.90;;
75990;SDS011;64673;52.276;10.560;2023-10-31T01:21:20;5.78;;;2.75;;
75990;SDS011;64673;52.276;10.560;2023-10-31T01:23:45;6.25;;;2.75;;
75990;SDS011;64673;52.276;10.560;2023-10-31T01:26:10;3.15;;;1.90;;
75990;SDS011;64673;52.276;10.560;2023-10-31T01:28:36;4.55;;;2.15;;
75990;SDS011;64673;52.276;10.560;2023-10-31T01:31:01;4.30;;;2.15;;
75990;SDS011;64673;52.276;10.560;2023-10-31T01:33:26;4.57;;;2.08;;
75990;SDS011;64673;52.276;10.560;2023-10-31T01:35:52;3.78;;;2.28;;
75990;SDS011;64673;52.276;10.560;2023-10-31T01:38:18;2.42;;;1.25;;
75990;SDS011;64673;52.276;10.560;2023-10-31T01:40:43;4.63;;;2.70;;
75990;SDS011;64673;52.276;10.560;2023-10-31T01:43:08;4.22;;;2.40;;
75990;SDS011;64673;52.276;10.560;2023-10-31T01:45:33;4.07;;;1.92;;
75990;SDS011;64673;52.276;10.560;2023-10-31T01:47:59;4.28;;;1.92;;
75990;SDS011;64673;52.276;10.560;2023-10-31T01:50:24;3.85;;;2.22;;
75990;SDS011;64673;52.276;10.560;2023-10-31T01:52:51;4.30;;;1.85;;
75990;SDS011;64673;52.276;10.560;2023-10-31T01:55:17;5.68;;;1.95;;
75990;SDS011;64673;52.276;10.560;2023-10-31T01:57:44;3.17;;;1.88;;
75990;SDS011;64673;52.276;10.560;2023-10-31T02:00:12;4.45;;;2.85;;
75990;SDS011;64673;52.276;10.560;2023-10-31T02:02:40;3.85;;;2.25;;
75990;SDS011;64673;52.276;10.560;2023-10-31T02:05:09;3.20;;;2.05;;
75990;SDS011;64673;52.276;10.560;2023-10-31T02:07:35;3.40;;;1.98;;
75990;SDS011;64673;52.276;10.560;2023-10-31T02:10:00;3.30;;;2.15;;
75990;SDS011;64673;52.276;10.560;2023-10-31T02:12:35;4.28;;;2.35;;
75990;SDS011;64673;52.276;10.560;2023-10-31T02:15:02;1.92;;;1.17;;
75990;SDS011;64673;52.276;10.560;2023-10-31T02:17:28;3.65;;;2.22;;
75990;SDS011;64673;52.276;10.560;2023-10-31T02:19:54;3.90;;;1.77;;
75990;SDS011;64673;52.276;10.560;2023-10-31T02:22:21;3.53;;;1.73;;
75990;SDS011;64673;52.276;10.560;2023-10-31T02:24:47;4.05;;;2.63;;
75990;SDS011;64673;52.276;10.560;2023-10-31T02:27:13;3.60;;;1.92;;
75990;SDS011;64673;52.276;10.560;2023-10-31T02:29:39;2.38;;;1.30;;
75990;SDS011;64673;52.276;10.560;2023-10-31T02:32:04;3.63;;;1.52;;
75990;SDS011;64673;52.276;10.560;2023-10-31T02:34:30;3.40;;;1.70;;
75990;SDS011;64673;52.276;10.560;2023-10-31T02:36:55;5.40;;;2.25;;
75990;SDS011;64673;52.276;10.560;2023-10-31T02:39:20;2.65;;;1.33;;
75990;SDS011;64673;52.276;10.560;2023-10-31T02:41:46;4.53;;;2.67;;
75990;SDS011;64673;52.276;10.560;2023-10-31T02:44:11;2.45;;;1.23;;
75990;SDS011;64673;52.276;10.560;2023-10-31T02:46:39;3.75;;;1.80;;
75990;SDS011;64673;52.276;10.560;2023-10-31T02:49:05;3.58;;;1.58;;
75990;SDS011;64673;52.276;10.560;2023-10-31T02:51:30;2.50;;;2.05;;
75990;SDS011;64673;52.276;10.560;2023-10-31T02:53:55;3.88;;;2.00;;
75990;SDS011;64673;52.276;10.560;2023-10-31T02:56:20;7.40;;;1.85;;
75990;SDS011;64673;52.276;10.560;2023-10-31T02:58:46;3.50;;;1.40;;
75990;SDS011;64673;52.276;10.560;2023-10-31T03:01:11;4.93;;;1.17;;
75990;SDS011;64673;52.276;10.560;2023-10-31T03:03:37;3.30;;;1.33;;
75990;SDS011;64673;52.276;10.560;2023-10-31T03:06:02;5.47;;;1.60;;
75990;SDS011;64673;52.276;10.560;2023-10-31T03:08:29;2.90;;;1.58;;
75990;SDS011;64673;52.276;10.560;2023-10-31T03:10:54;2.10;;;1.40;;
75990;SDS011;64673;52.276;10.560;2023-10-31T03:13:20;3.38;;;1.35;;
75990;SDS011;64673;52.276;10.560;2023-10-31T03:15:45;2.58;;;1.35;;
75990;SDS011;64673;52.276;10.560;2023-10-31T03:18:11;2.17;;;1.15;;
75990;SDS011;64673;52.276;10.560;2023-10-31T03:20:37;2.30;;;1.17;;
75990;SDS011;64673;52.276;10.560;2023-10-31T03:23:02;1.90;;;1.20;;
75990;SDS011;64673;52.276;10.560;2023-10-31T03:25:27;2.33;;;1.10;;
75990;SDS011;64673;52.276;10.560;2023-10-31T03:27:53;1.98;;;1.40;;
75990;SDS011;64673;52.276;10.560;2023-10-31T03:30:18;2.42;;;1.25;;
75990;SDS011;64673;52.276;10.560;2023-10-31T03:32:43;1.65;;;1.15;;
75990;SDS011;64673;52.276;10.560;2023-10-31T03:35:09;2.33;;;1.23;;
75990;SDS011;64673;52.276;10.560;2023-10-31T03:37:34;3.38;;;1.20;;
75990;SDS011;64673;52.276;10.560;2023-10-31T03:40:01;1.90;;;1.35;;
75990;SDS011;64673;52.276;10.560;2023-10-31T03:42:26;4.43;;;1.50;;
75990;SDS011;64673;52.276;10.560;2023-10-31T03:44:51;1.52;;;1.17;;
75990;SDS011;64673;52.276;10.560;2023-10-31T03:47:17;1.73;;;1.30;;
75990;SDS011;64673;52.276;10.560;2023-10-31T03:49:42;2.75;;;1.00;;
75990;SDS011;64673;52.276;10.560;2023-10-31T03:52:07;2.55;;;1.25;;
75990;SDS011;64673;52.276;10.560;2023-10-31T03:54:33;3.53;;;1.15;;
75990;SDS011;64673;52.276;10.560;2023-10-31T03:56:58;3.97;;;1.35;;
75990;SDS011;64673;52.276;10.560;2023-10-31T03:59:23;1.95;;;1.10;;
75990;SDS011;64673;52.276;10.560;2023-10-31T04:01:48;3.43;;;1.63;;
75990;SDS011;64673;52.276;10.560;2023-10-31T04:04:14;2.40;;;1.58;;
75990;SDS011;64673;52.276;10.560;2023-10-31T04:06:39;2.85;;;1.55;;
75990;SDS011;64673;52.276;10.560;2023-10-31T04:09:06;4.05;;;1.80;;
75990;SDS011;64673;52.276;10.560;2023-10-31T04:11:31;2.30;;;1.52;;
75990;SDS011;64673;52.276;10.560;2023-10-31T04:13:56;2.67;;;1.60;;
75990;SDS011;64673;52.276;10.560;2023-10-31T04:16:22;2.70;;;1.50;;
75990;SDS011;64673;52.276;10.560;2023-10-31T04:18:47;2.75;;;1.30;;
75990;SDS011;64673;52.276;10.560;2023-10-31T04:21:12;1.38;;;0.88;;
75990;SDS011;64673;52.276;10.560;2023-10-31T04:23:38;2.67;;;1.85;;
75990;SDS011;64673;52.276;10.560;2023-10-31T04:26:03;2.17;;;1.13;;
75990;SDS011;64673;52.276;10.560;2023-10-31T04:28:28;2.47;;;1.40;;
75990;SDS011;64673;52.276;10.560;2023-10-31T04:30:54;1.60;;;0.98;;
75990;SDS011;64673;52.276;10.560;2023-10-31T04:33:19;1.27;;;0.88;;
75990;SDS011;64673;52.276;10.560;2023-10-31T04:35:44;0.93;;;0.63;;
75990;SDS011;64673;52.276;10.560;2023-10-31T04:38:10;0.68;;;0.40;;
75990;SDS011;64673;52.276;10.560;2023-10-31T04:40:35;1.05;;;0.35;;
75990;SDS011;64673;52.276;10.560;2023-10-31T04:43:01;1.00;;;0.50;;
75990;SDS011;64673;52.276;10.560;2023-10-31T04:45:26;0.57;;;0.40;;
75990;SDS011;64673;52.276;10.560;2023-10-31T04:47:51;1.03;;;0.50;;
75990;SDS011;64673;52.276;10.560;2023-10-31T04:50:16;0.40;;;0.23;;
75990;SDS011;64673;52.276;10.560;2023-10-31T04:52:42;1.25;;;0.40;;
75990;SDS011;64673;52.276;10.560;2023-10-31T04:55:07;1.50;;;0.77;;
75990;SDS011;64673;52.276;10.560;2023-10-31T04:57:33;1.27;;;0.60;;
75990;SDS011;64673;52.276;10.560;2023-10-31T04:59:58;1.23;;;0.50;;
75990;SDS011;64673;52.276;10.560;2023-10-31T05:02:24;0.63;;;0.52;;
75990;SDS011;64673;52.276;10.560;2023-10-31T05:04:49;0.85;;;0.55;;
75990;SDS011;64673;52.276;10.560;2023-10-31T05:07:18;0.80;;;0.50;;
75990;SDS011;64673;52.276;10.560;2023-10-31T05:09:43;0.50;;;0.30;;
75990;SDS011;64673;52.276;10.560;2023-10-31T05:12:08;0.65;;;0.43;;
75990;SDS011;64673;52.276;10.560;2023-10-31T05:14:34;0.50;;;0.38;;
75990;SDS011;64673;52.276;10.560;2023-10-31T05:17:00;0.82;;;0.50;;
75990;SDS011;64673;52.276;10.560;2023-10-31T05:19:25;0.60;;;0.30;;
75990;SDS011;64673;52.276;10.560;2023-10-31T05:21:51;0.77;;;0.35;;
75990;SDS011;64673;52.276;10.560;2023-10-31T05:24:16;0.60;;;0.30;;
75990;SDS011;64673;52.276;10.560;2023-10-31T05:26:42;0.52;;;0.50;;
75990;SDS011;64673;52.276;10.560;2023-10-31T05:29:08;0.50;;;0.20;;
75990;SDS011;64673;52.276;10.560;2023-10-31T05:31:33;0.43;;;0.32;;
75990;SDS011;64673;52.276;10.560;2023-10-31T05:33:58;0.60;;;0.25;;
75990;SDS011;64673;52.276;10.560;2023-10-31T05:36:24;0.05;;;0.03;;
75990;SDS011;64673;52.276;10.560;2023-10-31T05:38:51;0.30;;;0.20;;
75990;SDS011;64673;52.276;10.560;2023-10-31T05:41:16;0.73;;;0.30;;
75990;SDS011;64673;52.276;10.560;2023-10-31T05:43:41;0.20;;;0.15;;
75990;SDS011;64673;52.276;10.560;2023-10-31T05:46:07;1.60;;;0.32;;
75990;SDS011;64673;52.276;10.560;2023-10-31T05:48:39;0.15;;;0.10;;
75990;SDS011;64673;52.276;10.560;2023-10-31T05:51:10;0.10;;;0.03;;
75990;SDS011;64673;52.276;10.560;2023-10-31T05:53:39;0.40;;;0.28;;
75990;SDS011;64673;52.276;10.560;2023-10-31T05:56:05;0.20;;;0.10;;
75990;SDS011;64673;52.276;10.560;2023-10-31T05:58:32;0.40;;;0.22;;
75990;SDS011;64673;52.276;10.560;2023-10-31T06:00:58;0.40;;;0.10;;
75990;SDS011;64673;52.276;10.560;2023-10-31T06:03:23;0.22;;;0.10;;
75990;SDS011;64673;52.276;10.560;2023-10-31T06:05:48;0.40;;;0.25;;
75990;SDS011;64673;52.276;10.560;2023-10-31T06:08:13;0.20;;;0.20;;
75990;SDS011;64673;52.276;10.560;2023-10-31T06:10:39;0.20;;;0.10;;
75990;SDS011;64673;52.276;10.560;2023-10-31T06:13:04;0.35;;;0.30;;
75990;SDS011;64673;52.276;10.560;2023-10-31T06:15:29;0.32;;;0.25;;
75990;SDS011;64673;52.276;10.560;2023-10-31T06:17:55;1.75;;;0.50;;
75990;SDS011;64673;52.276;10.560;2023-10-31T06:20:20;1.10;;;0.23;;
75990;SDS011;64673;52.276;10.560;2023-10-31T06:22:46;0.20;;;0.20;;
75990;SDS011;64673;52.276;10.560;2023-10-31T06:25:12;0.85;;;0.20;;
75990;SDS011;64673;52.276;10.560;2023-10-31T06:27:37;0.50;;;0.20;;
75990;SDS011;64673;52.276;10.560;2023-10-31T06:30:02;0.30;;;0.30;;
75990;SDS011;64673;52.276;10.560;2023-10-31T06:32:28;0.60;;;0.20;;
75990;SDS011;64673;52.276;10.560;2023-10-31T06:34:53;0.20;;;0.17;;
75990;SDS011;64673;52.276;10.560;2023-10-31T06:37:19;0.10;;;0.10;;
75990;SDS011;64673;52.276;10.560;2023-10-31T06:39:44;0.20;;;0.10;;
75990;SDS011;64673;52.276;10.560;2023-10-31T06:42:09;0.20;;;0.13;;
75990;SDS011;64673;52.276;10.560;2023-10-31T06:44:35;0.22;;;0.20;;
75990;SDS011;64673;52.276;10.560;2023-10-31T06:47:00;0.10;;;0.10;;
75990;SDS011;64673;52.276;10.560;2023-10-31T06:49:25;3.20;;;0.30;;
75990;SDS011;64673;52.276;10.560;2023-10-31T06:51:51;0.15;;;0.10;;
75990;SDS011;64673;52.276;10.560;2023-10-31T06:54:16;0.35;;;0.20;;
75990;SDS011;64673;52.276;10.560;2023-10-31T06:56:41;0.20;;;0.10;;
75990;SDS011;64673;52.276;10.560;2023-10-31T06:59:06;0.80;;;0.20;;
75990;SDS011;64673;52.276;10.560;2023-10-31T07:01:33;0.40;;;0.32;;
75990;SDS011;64673;52.276;10.560;2023-10-31T07:03:59;0.10;;;0.10;;
75990;SDS011;64673;52.276;10.560;2023-10-31T07:06:24;0.40;;;0.20;;
75990;SDS011;64673;52.276;10.560;2023-10-31T07:08:50;0.10;;;0.08;;
75990;SDS011;64673;52.276;10.560;2023-10-31T07:11:15;0.08;;;0.08;;
75990;SDS011;64673;52.276;10.560;2023-10-31T07:13:40;0.22;;;0.15;;
75990;SDS011;64673;52.276;10.560;2023-10-31T07:16:06;0.10;;;0.10;;
75990;SDS011;64673;52.276;10.560;2023-10-31T07:18:32;0.25;;;0.15;;
75990;SDS011;64673;52.276;10.560;2023-10-31T07:20:57;0.30;;;0.20;;
75990;SDS011;64673;52.276;10.560;2023-10-31T07:23:22;0.28;;;0.13;;
75990;SDS011;64673;52.276;10.560;2023-10-31T07:25:48;0.85;;;0.32;;
75990;SDS011;64673;52.276;10.560;2023-10-31T07:28:13;0.27;;;0.20;;
75990;SDS011;64673;52.276;10.560;2023-10-31T07:30:38;0.93;;;0.50;;
75990;SDS011;64673;52.276;10.560;2023-10-31T07:33:04;0.95;;;0.28;;
75990;SDS011;64673;52.276;10.560;2023-10-31T07:35:29;0.07;;;0.07;;
75990;SDS011;64673;52.276;10.560;2023-10-31T07:37:54;0.10;;;0.08;;
75990;SDS011;64673;52.276;10.560;2023-10-31T07:40:20;0.38;;;0.28;;
75990;SDS011;64673;52.276;10.560;2023-10-31T07:42:45;0.40;;;0.20;;
75990;SDS011;64673;52.276;10.560;2023-10-31T07:45:10;2.95;;;0.40;;
75990;SDS011;64673;52.276;10.560;2023-10-31T07:47:36;0.75;;;0.30;;
75990;SDS011;64673;52.276;10.560;2023-10-31T07:50:01;0.40;;;0.25;;
75990;SDS011;64673;52.276;10.560;2023-10-31T07:52:27;1.92;;;0.43;;
75990;SDS011;64673;52.276;10.560;2023-10-31T07:54:52;0.63;;;0.57;;
75990;SDS011;64673;52.276;10.560;2023-10-31T07:57:17;0.82;;;0.55;;
75990;SDS011;64673;52.276;10.560;2023-10-31T07:59:44;0.75;;;0.43;;
75990;SDS011;64673;52.276;10.560;2023-10-31T08:02:09;0.38;;;0.25;;
75990;SDS011;64673;52.276;10.560;2023-10-31T08:04:35;0.88;;;0.60;;
75990;SDS011;64673;52.276;10.560;2023-10-31T08:07:00;1.33;;;0.57;;
75990;SDS011;64673;52.276;10.560;2023-10-31T08:09:26;0.80;;;0.40;;
75990;SDS011;64673;52.276;10.560;2023-10-31T08:11:52;1.23;;;0.88;;
75990;SDS011;64673;52.276;10.560;2023-10-31T08:14:17;1.35;;;0.73;;
75990;SDS011;64673;52.276;10.560;2023-10-31T08:16:43;0.60;;;0.50;;
75990;SDS011;64673;52.276;10.560;2023-10-31T08:19:09;4.30;;;0.50;;
75990;SDS011;64673;52.276;10.560;2023-10-31T08:21:35;1.83;;;0.95;;
75990;SDS011;64673;52.276;10.560;2023-10-31T08:24:04;1.95;;;0.93;;
75990;SDS011;64673;52.276;10.560;2023-10-31T08:26:30;2.47;;;0.93;;
75990;SDS011;64673;52.276;10.560;2023-10-31T08:28:57;1.77;;;1.15;;
75990;SDS011;64673;52.276;10.560;2023-10-31T08:31:22;1.42;;;0.60;;
75990;SDS011;64673;52.276;10.560;2023-10-31T08:33:48;1.25;;;0.80;;
75990;SDS011;64673;52.276;10.560;2023-10-31T08:36:13;0.55;;;0.47;;
75990;SDS011;64673;52.276;10.560;2023-10-31T08:38:38;1.30;;;0.88;;
75990;SDS011;64673;52.276;10.560;2023-10-31T08:41:04;1.25;;;0.95;;
75990;SDS011;64673;52.276;10.560;2023-10-31T08:43:30;2.83;;;0.90;;
75990;SDS011;64673;52.276;10.560;2023-10-31T08:45:55;1.73;;;0.90;;
75990;SDS011;64673;52.276;10.560;2023-10-31T08:48:20;1.25;;;1.00;;
75990;SDS011;64673;52.276;10.560;2023-10-31T08:50:46;2.95;;;1.10;;
75990;SDS011;64673;52.276;10.560;2023-10-31T08:53:11;1.83;;;1.23;;
75990;SDS011;64673;52.276;10.560;2023-10-31T08:55:37;1.88;;;0.88;;
75990;SDS011;64673;52.276;10.560;2023-10-31T08:58:02;1.50;;;0.93;;
75990;SDS011;64673;52.276;10.560;2023-10-31T09:00:27;1.27;;;0.63;;
75990;SDS011;64673;52.276;10.560;2023-10-31T09:02:53;1.50;;;0.82;;
75990;SDS011;64673;52.276;10.560;2023-10-31T09:05:19;1.35;;;0.70;;
75990;SDS011;64673;52.276;10.560;2023-10-31T09:07:45;0.50;;;0.35;;
75990;SDS011;64673;52.276;10.560;2023-10-31T09:10:11;0.40;;;0.32;;
75990;SDS011;64673;52.276;10.560;2023-10-31T09:12:37;2.25;;;0.43;;
75990;SDS011;64673;52.276;10.560;2023-10-31T09:15:03;1.23;;;0.15;;
75990;SDS011;64673;52.276;10.560;2023-10-31T09:17:29;1.08;;;0.80;;
75990;SDS011;64673;52.276;10.560;2023-10-31T09:19:54;0.38;;;0.17;;
75990;SDS011;64673;52.276;10.560;2023-10-31T09:22:19;0.60;;;0.20;;
75990;SDS011;64673;52.276;10.560;2023-10-31T09:24:45;0.68;;;0.35;;
75990;SDS011;64673;52.276;10.560;2023-10-31T09:27:10;0.30;;;0.27;;
75990;SDS011;64673;52.276;10.560;2023-10-31T09:29:35;0.95;;;0.30;;
75990;SDS011;64673;52.276;10.560;2023-10-31T09:32:01;0.77;;;0.40;;
75990;SDS011;64673;52.276;10.560;2023-10-31T09:34:26;0.43;;;0.35;;
75990;SDS011;64673;52.276;10.560;2023-10-31T09:36:51;0.38;;;0.10;;
75990;SDS011;64673;52.276;10.560;2023-10-31T09:39:17;0.30;;;0.30;;
75990;SDS011;64673;52.276;10.560;2023-10-31T09:41:42;0.60;;;0.20;;
75990;SDS011;64673;52.276;10.560;2023-10-31T09:44:08;0.63;;;0.22;;
75990;SDS011;64673;52.276;10.560;2023-10-31T09:46:33;0.15;;;0.15;;
75990;SDS011;64673;52.276;10.560;2023-10-31T09:49:00;0.60;;;0.10;;
75990;SDS011;64673;52.276;10.560;2023-10-31T09:51:26;0.47;;;0.17;;
75990;SDS011;64673;52.276;10.560;2023-10-31T09:53:54;4.60;;;0.13;;
75990;SDS011;64673;52.276;10.560;2023-10-31T09:56:20;0.20;;;0.10;;
75990;SDS011;64673;52.276;10.560;2023-10-31T09:58:46;0.60;;;0.17;;
75990;SDS011;64673;52.276;10.560;2023-10-31T10:01:12;0.10;;;0.10;;
75990;SDS011;64673;52.276;10.560;2023-10-31T10:03:37;0.75;;;0.10;;
75990;SDS011;64673;52.276;10.560;2023-10-31T10:06:03;0.25;;;0.10;;
75990;SDS011;64673;52.276;10.560;2023-10-31T10:08:29;0.00;;;0.00;;
75990;SDS011;64673;52.276;10.560;2023-10-31T10:10:54;0.17;;;0.15;;
75990;SDS011;64673;52.276;10.560;2023-10-31T10:13:20;0.08;;;0.00;;
75990;SDS011;64673;52.276;10.560;2023-10-31T10:15:49;0.25;;;0.10;;
75990;SDS011;64673;52.276;10.560;2023-10-31T10:18:30;0.20;;;0.10;;
75990;SDS011;64673;52.276;10.560;2023-10-31T10:21:02;0.03;;;0.00;;
75990;SDS011;64673;52.276;10.560;2023-10-31T10:23:29;0.10;;;0.10;;
75990;SDS011;64673;52.276;10.560;2023-10-31T10:25:56;0.20;;;0.00;;
75990;SDS011;64673;52.276;10.560;2023-10-31T10:28:23;0.20;;;0.10;;
75990;SDS011;64673;52.276;10.560;2023-10-31T10:30:49;0.57;;;0.30;;
75990;SDS011;64673;52.276;10.560;2023-10-31T10:33:16;0.20;;;0.20;;
75990;SDS011;64673;52.276;10.560;2023-10-31T10:35:42;0.03;;;0.03;;
75990;SDS011;64673;52.276;10.560;2023-10-31T10:38:10;0.00;;;0.00;;
75990;SDS011;64673;52.276;10.560;2023-10-31T10:40:49;0.05;;;0.00;;
75990;SDS011;64673;52.276;10.560;2023-10-31T10:43:24;0.13;;;0.00;;
75990;SDS011;64673;52.276;10.560;2023-10-31T10:45:54;0.10;;;0.10;;
75990;SDS011;64673;52.276;10.560;2023-10-31T10:48:21;0.40;;;0.10;;
75990;SDS011;64673;52.276;10.560;2023-10-31T10:50:50;0.00;;;0.00;;
75990;SDS011;64673;52.276;10.560;2023-10-31T10:53:25;0.00;;;0.00;;
75990;SDS011;64673;52.276;10.560;2023-10-31T10:55:55;0.10;;;0.10;;
75990;SDS011;64673;52.276;10.560;2023-10-31T11:01:15;0.05;;;0.00;;
75990;SDS011;64673;52.276;10.560;2023-10-31T11:03:43;0.05;;;0.05;;
75990;SDS011;64673;52.276;10.560;2023-10-31T11:06:10;0.10;;;0.10;;
75990;SDS011;64673;52.276;10.560;2023-10-31T11:08:35;5.00;;;0.15;;
75990;SDS011;64673;52.276;10.560;2023-10-31T11:11:02;0.35;;;0.13;;
75990;SDS011;64673;52.276;10.560;2023-10-31T11:13:29;0.10;;;0.10;;
75990;SDS011;64673;52.276;10.560;2023-10-31T11:15:55;0.00;;;0.00;;
75990;SDS011;64673;52.276;10.560;2023-10-31T11:18:25;0.45;;;0.10;;
75990;SDS011;64673;52.276;10.560;2023-10-31T11:20:50;0.70;;;0.15;;
75990;SDS011;64673;52.276;10.560;2023-10-31T11:23:16;0.75;;;0.17;;
75990;SDS011;64673;52.276;10.560;2023-10-31T11:25:42;0.17;;;0.17;;
75990;SDS011;64673;52.276;10.560;2023-10-31T11:28:14;0.10;;;0.10;;
75990;SDS011;64673;52.276;10.560;2023-10-31T11:30:41;0.13;;;0.10;;
75990;SDS011;64673;52.276;10.560;2023-10-31T11:33:11;0.17;;;0.10;;
75990;SDS011;64673;52.276;10.560;2023-10-31T11:35:40;0.20;;;0.17;;
75990;SDS011;64673;52.276;10.560;2023-10-31T11:38:07;2.20;;;0.13;;
75990;SDS011;64673;52.276;10.560;2023-10-31T11:40:36;0.15;;;0.10;;
75990;SDS011;64673;52.276;10.560;2023-10-31T11:43:05;0.20;;;0.20;;
75990;SDS011;64673;52.276;10.560;2023-10-31T11:48:00;0.30;;;0.10;;
75990;SDS011;64673;52.276;10.560;2023-10-31T11:50:26;0.50;;;0.50;;
75990;SDS011;64673;52.276;10.560;2023-10-31T11:53:01;0.20;;;0.10;;
75990;SDS011;64673;52.276;10.560;2023-10-31T11:55:30;0.10;;;0.10;;
75990;SDS011;64673;52.276;10.560;2023-10-31T11:58:12;1.38;;;0.32;;
75990;SDS011;64673;52.276;10.560;2023-10-31T12:00:38;0.13;;;0.13;;
75990;SDS011;64673;52.276;10.560;2023-10-31T12:03:04;0.13;;;0.10;;
75990;SDS011;64673;52.276;10.560;2023-10-31T12:05:29;0.77;;;0.30;;
75990;SDS011;64673;52.276;10.560;2023-10-31T12:07:55;0.45;;;0.25;;
75990;SDS011;64673;52.276;10.560;2023-10-31T12:10:21;0.20;;;0.15;;
75990;SDS011;64673;52.276;10.560;2023-10-31T12:12:52;0.30;;;0.15;;
75990;SDS011;64673;52.276;10.560;2023-10-31T12:15:18;0.85;;;0.35;;
75990;SDS011;64673;52.276;10.560;2023-10-31T12:17:43;0.57;;;0.28;;
75990;SDS011;64673;52.276;10.560;2023-10-31T12:20:09;0.82;;;0.30;;
75990;SDS011;64673;52.276;10.560;2023-10-31T12:22:35;0.47;;;0.30;;
75990;SDS011;64673;52.276;10.560;2023-10-31T12:25:01;0.13;;;0.13;;
75990;SDS011;64673;52.276;10.560;2023-10-31T12:30:09;0.63;;;0.25;;
75990;SDS011;64673;52.276;10.560;2023-10-31T12:32:36;0.57;;;0.38;;
75990;SDS011;64673;52.276;10.560;2023-10-31T12:35:02;0.75;;;0.25;;
75990;SDS011;64673;52.276;10.560;2023-10-31T12:37:27;3.50;;;0.50;;
75990;SDS011;64673;52.276;10.560;2023-10-31T12:39:53;1.30;;;0.77;;
75990;SDS011;64673;52.276;10.560;2023-10-31T12:42:18;0.70;;;0.40;;
75990;SDS011;64673;52.276;10.560;2023-10-31T12:44:46;0.68;;;0.35;;
75990;SDS011;64673;52.276;10.560;2023-10-31T12:47:20;1.10;;;0.60;;
75990;SDS011;64673;52.276;10.560;2023-10-31T12:49:47;2.20;;;0.30;;
75990;SDS011;64673;52.276;10.560;2023-10-31T12:52:12;0.57;;;0.50;;
75990;SDS011;64673;52.276;10.560;2023-10-31T12:54:37;0.73;;;0.43;;
75990;SDS011;64673;52.276;10.560;2023-10-31T12:57:04;1.17;;;0.30;;
75990;SDS011;64673;52.276;10.560;2023-10-31T12:59:31;0.50;;;0.30;;
75990;SDS011;64673;52.276;10.560;2023-10-31T13:01:58;0.88;;;0.30;;
75990;SDS011;64673;52.276;10.560;2023-10-31T13:07:01;1.35;;;0.50;;
75990;SDS011;64673;52.276;10.560;2023-10-31T13:11:57;0.98;;;0.40;;
75990;SDS011;64673;52.276;10.560;2023-10-31T13:14:24;0.60;;;0.45;;
75990;SDS011;64673;52.276;10.560;2023-10-31T13:16:50;1.00;;;0.60;;
75990;SDS011;64673;52.276;10.560;2023-10-31T13:19:15;0.65;;;0.38;;
75990;SDS011;64673;52.276;10.560;2023-10-31T13:21:40;0.77;;;0.47;;
75990;SDS011;64673;52.276;10.560;2023-10-31T13:24:06;2.92;;;1.27;;
75990;SDS011;64673;52.276;10.560;2023-10-31T13:26:33;0.65;;;0.57;;
75990;SDS011;64673;52.276;10.560;2023-10-31T13:28:58;2.78;;;0.50;;
75990;SDS011;64673;52.276;10.560;2023-10-31T13:31:24;0.93;;;0.32;;
75990;SDS011;64673;52.276;10.560;2023-10-31T13:33:49;1.45;;;1.35;;
75990;SDS011;64673;52.276;10.560;2023-10-31T13:36:14;2.50;;;1.23;;
75990;SDS011;64673;52.276;10.560;2023-10-31T13:38:40;1.50;;;0.85;;
75990;SDS011;64673;52.276;10.560;2023-10-31T13:41:05;1.30;;;0.88;;
75990;SDS011;64673;52.276;10.560;2023-10-31T13:43:31;1.65;;;1.00;;
75990;SDS011;64673;52.276;10.560;2023-10-31T13:45:56;1.30;;;0.80;;
75990;SDS011;64673;52.276;10.560;2023-10-31T13:48:21;1.05;;;0.75;;
75990;SDS011;64673;52.276;10.560;2023-10-31T13:50:47;1.05;;;0.60;;
75990;SDS011;64673;52.276;10.560;2023-10-31T13:53:12;2.42;;;0.95;;
75990;SDS011;64673;52.276;10.560;2023-10-31T13:55:38;1.83;;;0.85;;
75990;SDS011;64673;52.276;10.560;2023-10-31T13:58:03;1.00;;;0.50;;
75990;SDS011;64673;52.276;10.560;2023-10-31T14:00:28;1.00;;;0.90;;
75990;SDS011;64673;52.276;10.560;2023-10-31T14:02:54;0.98;;;0.63;;
75990;SDS011;64673;52.276;10.560;2023-10-31T14:05:20;2.47;;;0.45;;
75990;SDS011;64673;52.276;10.560;2023-10-31T14:07:46;1.15;;;0.60;;
75990;SDS011;64673;52.276;10.560;2023-10-31T14:10:12;0.80;;;0.70;;
75990;SDS011;64673;52.276;10.560;2023-10-31T14:12:37;1.90;;;0.98;;
75990;SDS011;64673;52.276;10.560;2023-10-31T14:15:02;0.73;;;0.43;;
75990;SDS011;64673;52.276;10.560;2023-10-31T14:17:28;1.35;;;0.50;;
75990;SDS011;64673;52.276;10.560;2023-10-31T14:19:54;1.08;;;0.52;;
75990;SDS011;64673;52.276;10.560;2023-10-31T14:22:19;1.77;;;0.77;;
75990;SDS011;64673;52.276;10.560;2023-10-31T14:24:44;1.02;;;0.57;;
75990;SDS011;64673;52.276;10.560;2023-10-31T14:27:11;1.02;;;0.65;;
75990;SDS011;64673;52.276;10.560;2023-10-31T14:29:37;0.93;;;0.60;;
75990;SDS011;64673;52.276;10.560;2023-10-31T14:32:05;0.55;;;0.50;;
75990;SDS011;64673;52.276;10.560;2023-10-31T14:34:34;0.88;;;0.35;;
75990;SDS011;64673;52.276;10.560;2023-10-31T14:37:00;1.08;;;0.30;;
75990;SDS011;64673;52.276;10.560;2023-10-31T14:39:25;1.50;;;0.57;;
75990;SDS011;64673;52.276;10.560;2023-10-31T14:41:50;1.02;;;0.57;;